Flight Track Log - Related Links

Times and Time Zones

All times are in EDT time to prevent confusion due to time zone crossing. See the N58BT flight status page for this flight to view local times or setup timezone preferences in your user account.

Time Position Orientation Groundspeed Altitude Reporting Facility
EDT Latitude Longitude Course Direction KTS MPH feet Rate Location/Type
Wed 04:21:03 PM 30.2069 -84.2603 151° Southeast 131 151 9,200  Level Jacksonville Center
Wed 04:22:04 PM 30.1758 -84.2406 151° Southeast 137 158 10,500 1,250 Climbing Jacksonville Center
Wed 04:23:03 PM 30.1386 -84.2183 153° Southeast 137 158 11,700 1,311 Climbing Jacksonville Center
Wed 04:24:03 PM 30.1011 -84.1964 153° Southeast 142 163 13,100 1,300 Climbing Jacksonville Center
Wed 04:25:03 PM 30.0658 -84.1742 151° Southeast 147 169 14,300 1,200 Climbing Jacksonville Center
Wed 04:26:03 PM 30.0264 -84.1544 157° South 153 176 15,500 1,100 Climbing Jacksonville Center
Wed 04:27:03 PM 29.9869 -84.1322 154° Southeast 158 182 16,500 900 Climbing Jacksonville Center
Wed 04:28:03 PM 29.9414 -84.1078 155° Southeast 164 189 17,300 496 Climbing Jacksonville Center
Wed 04:29:04 PM 29.8956 -84.0858 157° South 174 200 17,500 99 Climbing Jacksonville Center
Wed 04:30:04 PM 29.8500 -84.0589 153° Southeast 180 207 17,500  Level Jacksonville Center
Wed 04:31:03 PM 29.8022 -84.0272 150° Southeast 185 213 17,500  Level Jacksonville Center
Wed 04:32:04 PM 29.7522 -84.0050 159° South 195 224 17,500  Level Jacksonville Center
Wed 04:33:03 PM 29.6961 -83.9853 163° South 195 224 17,500  Level Jacksonville Center
Wed 04:34:03 PM 29.6461 -83.9681 163° South 195 224 17,500  Level Jacksonville Center
Wed 04:35:03 PM 29.5942 -83.9506 164° South 195 224 17,500  Level Jacksonville Center
Wed 04:36:03 PM 29.5400 -83.9308 162° South 195 224 17,500  Level Jacksonville Center
Wed 04:37:04 PM 29.4878 -83.9114 162° South 200 230 17,500  Level Jacksonville Center
Wed 04:38:03 PM 29.4400 -83.8869 156° South 200 230 17,500  Level Jacksonville Center
Wed 04:39:04 PM 29.3881 -83.8625 158° South 200 230 17,500  Level Jacksonville Center
Wed 04:40:03 PM 29.3381 -83.8358 155° Southeast 200 230 17,500  Level Jacksonville Center
Wed 04:41:03 PM 29.2903 -83.8069 152° Southeast 200 230 17,500  Level Jacksonville Center
Wed 04:42:04 PM 29.2383 -83.7803 156° South 200 230 17,500 50 Level Jacksonville Center
Wed 04:43:04 PM 29.1864 -83.7511 154° Southeast 200 230 17,600 50 Climbing Jacksonville Center
Wed 04:44:03 PM 29.1406 -83.7247 153° Southeast 200 230 17,600  Level Jacksonville Center
Wed 04:45:03 PM 29.0886 -83.6981 156° South 195 224 17,600  Level Jacksonville Center
Wed 04:46:04 PM 29.0386 -83.6717 155° Southeast 195 224 17,600  Level Jacksonville Center
Wed 04:47:03 PM 28.9889 -83.6428 153° Southeast 195 224 17,600  Level Jacksonville Center
Wed 04:48:04 PM 28.9431 -83.6114 149° Southeast 195 224 17,600  Level Jacksonville Center
Wed 04:49:03 PM 28.8953 -83.5781 149° Southeast 195 224 17,600  Level Jacksonville Center
Wed 04:50:03 PM 28.8494 -83.5517 153° Southeast 195 224 17,600  Level Jacksonville Center
Wed 04:51:04 PM 28.8017 -83.5206 150° Southeast 200 230 17,600 -36 Level Jacksonville Center
Wed 04:52:52 PM 28.7133 -83.4700 153° Southeast 198 228 17,500 -36 Descending Miami Center
Wed 04:53:52 PM 28.6650 -83.4364 149° Southeast 198 228 17,500  Level Miami Center
Wed 04:54:52 PM 28.6161 -83.4075 153° Southeast 198 228 17,500  Level Miami Center
Wed 04:55:52 PM 28.5675 -83.3761 150° Southeast 198 228 17,500 -50 Level Miami Center
Wed 04:56:52 PM 28.5167 -83.3472 153° Southeast 198 228 17,400  Descending Miami Center
Wed 04:57:52 PM 28.4636 -83.3231 158° South 198 228 17,500 50 Climbing Miami Center
Wed 04:58:52 PM 28.4086 -83.2939 155° Southeast 203 234 17,500  Level Miami Center
Wed 04:59:52 PM 28.3578 -83.2697 157° South 209 241 17,500 50 Level Miami Center
Wed 05:00:52 PM 28.3047 -83.2408 154° Southeast 209 241 17,600 50 Climbing Miami Center
Wed 05:01:52 PM 28.2494 -83.2164 159° South 209 241 17,600 -50 Level Miami Center
Wed 05:02:52 PM 28.1964 -83.1900 156° South 209 241 17,500 -50 Descending Miami Center
Wed 05:03:52 PM 28.1392 -83.1656 159° South 209 241 17,500 -50 Level Miami Center
Wed 05:04:52 PM 28.0836 -83.1458 163° South 209 241 17,400  Descending Miami Center
Wed 05:05:52 PM 28.0281 -83.1311 167° South 204 235 17,500 50 Climbing Miami Center
Wed 05:06:52 PM 27.9725 -83.1139 165° South 204 235 17,500  Level Miami Center
Wed 05:07:52 PM 27.9169 -83.0944 163° South 204 235 17,500  Level Miami Center
Wed 05:08:52 PM 27.8614 -83.0772 165° South 204 235 17,500  Level Miami Center
Wed 05:09:52 PM 27.8058 -83.0603 165° South 204 235 17,500  Level Miami Center
Wed 05:10:52 PM 27.7525 -83.0408 162° South 204 235 17,500  Level Miami Center
Wed 05:11:52 PM 27.6969 -83.0214 163° South 204 235 17,500  Level Miami Center
Wed 05:12:52 PM 27.6436 -83.0022 162° South 204 235 17,500  Level Miami Center
Wed 05:13:52 PM 27.5856 -82.9897 169° South 204 235 17,500  Level Miami Center
Wed 05:14:52 PM 27.5300 -82.9775 169° South 204 235 17,500  Level Miami Center
Wed 05:15:52 PM 27.4739 -82.9675 171° South 204 235 17,500  Level Miami Center
Wed 05:16:52 PM 27.4161 -82.9550 169° South 199 229 17,500  Level Miami Center
Wed 05:17:52 PM 27.3603 -82.9428 169° South 199 229 17,500  Level Miami Center
Wed 05:18:52 PM 27.3044 -82.9303 169° South 199 229 17,500  Level Miami Center
Wed 05:19:52 PM 27.2486 -82.9203 171° South 199 229 17,500  Level Miami Center
Wed 05:20:52 PM 27.1928 -82.9106 171° South 199 229 17,500  Level Miami Center
Wed 05:21:52 PM 27.1411 -82.8961 166° South 199 229 17,500  Level Miami Center
Wed 05:22:52 PM 27.1056 -82.8453 128° Southeast 193 222 17,500 50 Level Miami Center
Wed 05:23:52 PM 27.0658 -82.8014 135° Southeast 193 222 17,600 50 Climbing Miami Center
Wed 05:24:52 PM 27.0278 -82.7575 134° Southeast 198 228 17,600  Level Miami Center
Wed 05:25:52 PM 26.9922 -82.7136 132° Southeast 193 222 17,600 -50 Level Miami Center
Wed 05:26:52 PM 26.9542 -82.6700 134° Southeast 193 222 17,500 -50 Descending Miami Center
Wed 05:27:52 PM 26.9142 -82.6283 137° Southeast 188 216 17,500  Level Miami Center
Wed 05:28:52 PM 26.8761 -82.5847 134° Southeast 188 216 17,500  Level Miami Center
Wed 05:29:52 PM 26.8386 -82.5339 130° Southeast 193 222 17,500  Level Miami Center
Wed 05:30:52 PM 26.8028 -82.4856 130° Southeast 193 222 17,500  Level Miami Center
Wed 05:31:52 PM 26.7692 -82.4397 129° Southeast 193 222 17,500  Level Miami Center
Wed 05:32:52 PM 26.7372 -82.3989 131° Southeast 193 222 17,500 -400 Level Miami Center
Wed 05:33:52 PM 26.7058 -82.3486 125° Southeast 200 230 16,700 -950 Descending Miami Center
Wed 05:34:52 PM 26.6828 -82.2939 115° Southeast 200 230 15,600 -1,100 Descending Miami Center
Wed 05:35:52 PM 26.6597 -82.2394 115° Southeast 200 230 14,500 -1,200 Descending Miami Center
Wed 05:36:52 PM 26.6217 -82.1961 134° Southeast 194 223 13,200 -1,550 Descending Miami Center
Wed 05:37:52 PM 26.5942 -82.1483 123° Southeast 187 215 11,400 -1,100 Descending Miami Center
Wed 05:38:52 PM 26.5606 -82.1003 128° Southeast 182 209 11,000 -500 Descending Miami Center
Wed 05:39:52 PM 26.5286 -82.0572 130° Southeast 182 209 10,400 -850 Descending Miami Center
Wed 05:40:52 PM 26.4969 -82.0139 129° Southeast 188 216 9,300 -1,100 Descending Miami Center
Wed 05:42:00 PM 26.4526 -81.9831 136° Southeast  Level Estimated
Wed 05:49:00 PM 26.1814 -81.7890 147° Southeast  Level FlightAware Approximate
Wed 05:50:00 PM 26.1500 -81.7667 136° Southeast  Level FlightAware Approximate
Wed 05:51:00 PM 26.1524 -81.7756 136° Southeast  Level Estimated
Wed 05:52:00 PM 26.1524 -81.7756 136° Southeast  Level Estimated
Wed 05:53:00 PM 26.1524 -81.7756 136° Southeast  Level Estimated
Wed 05:54:00 PM 26.1524 -81.7756 136° Southeast  Level Estimated
Wed 05:55:00 PM 26.1524 -81.7756 136° Southeast  Level Estimated
Wed 05:56:00 PM 26.1524 -81.7756 136° Southeast  Level Estimated
Wed 05:57:00 PM 26.1524 -81.7756 136° Southeast  Level Estimated
Wed 05:58:00 PM 26.1524 -81.7756 136° Southeast  Level Estimated
Wed 05:59:00 PM 26.1524 -81.7756 136° Southeast  Level Estimated
Wed 06:00:00 PM 26.1524 -81.7756 136° Southeast  Level Estimated
Wed 06:01:00 PM 26.1524 -81.7756 136° Southeast  Level Estimated

Login

Don't have an account? Register now (free) for customized features, flight alerts, and more!